Sharpsburg, Illinois
Current Conditions -  °F | °C
As of 5:35 AM on Thursday 27 Nov 2014 (Local Time) from KTAZ Reporting Station
Broken Clouds Broken Clouds  
Wind Chill: 13°   Ceiling: 8500
Heat Index: 21°   Visibility: 7mi
Dew Point: 19°   Wind: 7mph
Humidity: 93%   Direction: 350°N
Pressure: 30.35"   Gusts: NA
Location:  39.5521°N, 89.3216°W
Report Text: KTAZ 271135Z AUTO 35006KT 7SM BKN085 M06/M07 A3035 RMK AO2
Loading
Personal Weather Stations






























Interactive Weather Map New forecast layout! Learn more

10-Day Weather Forecast

Advertisements
Track Severe Weather on mobile